Time;durP1;ratioP1;P1;durP2;ratioP2;P2;SDS_P1;SDS_P2;PMS_P1;PMS_P2;Temp;Humidity;BMP_temperature;BMP_pressure;BME280_temperature;BME280_humidity;BME280_pressure;Samples;Min_cycle;Max_cycle;Signal;HPM_P1;HPM_P2
2023/10/30 00:01:32;;;;;;;6.17;1.87;;;10.40;99.90;;;;;;494106;241;28024;-71
2023/10/30 00:03:33;;;;;;;3.63;1.60;;;10.40;99.90;;;;;;494093;241;28354;-71
2023/10/30 00:05:34;;;;;;;7.10;1.50;;;10.30;99.90;;;;;;494072;241;27937;-73
2023/10/30 00:07:36;;;;;;;4.97;1.40;;;10.30;99.90;;;;;;494073;241;27916;-71
2023/10/30 00:09:37;;;;;;;6.93;1.60;;;10.30;99.90;;;;;;494069;241;27611;-72
2023/10/30 00:11:38;;;;;;;7.67;1.53;;;10.40;99.90;;;;;;494036;241;27925;-72
2023/10/30 00:13:41;;;;;;;5.97;2.03;;;10.30;99.90;;;;;;494072;241;28016;-72
2023/10/30 00:15:41;;;;;;;11.93;2.13;;;10.40;99.90;;;;;;493842;241;28424;-72
2023/10/30 00:17:42;;;;;;;6.27;1.87;;;10.30;99.90;;;;;;493999;241;28476;-72
2023/10/30 00:19:43;;;;;;;5.20;1.70;;;10.30;99.90;;;;;;494031;241;27611;-71
2023/10/30 00:21:45;;;;;;;5.97;1.83;;;10.30;99.90;;;;;;494054;241;27961;-72
2023/10/30 00:23:46;;;;;;;4.00;1.50;;;10.30;99.90;;;;;;494028;241;27944;-71
2023/10/30 00:25:48;;;;;;;5.77;1.90;;;10.30;99.90;;;;;;494011;241;28015;-72
2023/10/30 00:27:49;;;;;;;1.93;1.37;;;10.30;99.90;;;;;;494023;241;27634;-71
2023/10/30 00:29:50;;;;;;;3.00;1.77;;;10.30;99.90;;;;;;493975;241;28444;-72
2023/10/30 00:31:51;;;;;;;5.90;1.53;;;10.30;99.90;;;;;;494049;241;28524;-72
2023/10/30 00:33:53;;;;;;;6.90;1.57;;;10.30;99.90;;;;;;494091;241;27983;-71
2023/10/30 00:35:54;;;;;;;4.20;1.53;;;10.20;99.90;;;;;;493725;241;27680;-72
2023/10/30 00:37:56;;;;;;;4.90;1.93;;;10.20;99.90;;;;;;494095;241;27868;-72
2023/10/30 00:39:57;;;;;;;5.50;1.50;;;10.30;99.90;;;;;;494030;241;28049;-72
2023/10/30 00:41:59;;;;;;;7.53;2.10;;;10.20;99.90;;;;;;494025;241;28119;-71
2023/10/30 00:43:59;;;;;;;6.40;2.43;;;10.20;99.90;;;;;;493904;241;28574;-71
2023/10/30 00:46:01;;;;;;;5.83;1.60;;;10.20;99.90;;;;;;494020;241;30312;-71
2023/10/30 00:48:02;;;;;;;6.57;1.57;;;10.20;99.90;;;;;;494135;241;27896;-71
2023/10/30 00:50:03;;;;;;;3.30;1.37;;;10.20;99.90;;;;;;493893;241;28038;-72
2023/10/30 00:52:04;;;;;;;4.60;1.40;;;10.20;99.90;;;;;;494037;237;27849;-71
2023/10/30 00:54:06;;;;;;;4.63;1.60;;;10.20;99.90;;;;;;494089;241;27996;-71
2023/10/30 00:56:07;;;;;;;4.73;1.50;;;10.20;99.90;;;;;;494065;241;28490;-72
2023/10/30 00:58:08;;;;;;;5.23;1.50;;;10.20;99.90;;;;;;494111;241;28069;-71
2023/10/30 01:00:09;;;;;;;4.93;1.30;;;10.10;99.90;;;;;;494109;241;28006;-72
2023/10/30 01:02:11;;;;;;;4.53;1.60;;;10.10;99.90;;;;;;494025;241;27878;-71
2023/10/30 01:04:14;;;;;;;4.77;1.80;;;10.10;99.90;;;;;;494031;241;27501;-71
2023/10/30 01:06:13;;;;;;;3.17;1.50;;;10.10;99.90;;;;;;493871;241;28372;-72
2023/10/30 01:08:14;;;;;;;6.00;1.73;;;10.10;99.90;;;;;;494023;241;28584;-71
2023/10/30 01:10:16;;;;;;;2.17;1.30;;;10.00;99.90;;;;;;494082;237;28401;-72
2023/10/30 01:12:17;;;;;;;4.63;1.53;;;10.00;99.90;;;;;;494100;241;29103;-71
2023/10/30 01:14:18;;;;;;;6.50;1.60;;;10.00;99.90;;;;;;494005;241;27810;-71
2023/10/30 01:16:19;;;;;;;1.83;1.10;;;10.00;99.90;;;;;;494051;241;27939;-71
2023/10/30 01:18:21;;;;;;;3.03;1.10;;;10.00;99.90;;;;;;493832;241;27971;-71
2023/10/30 01:20:22;;;;;;;5.30;1.50;;;10.00;99.90;;;;;;493543;241;27960;-71
2023/10/30 01:22:23;;;;;;;4.20;1.63;;;10.00;99.90;;;;;;493259;241;28015;-71
2023/10/30 01:24:24;;;;;;;3.43;1.23;;;10.10;99.90;;;;;;494050;241;28061;-70
2023/10/30 01:26:26;;;;;;;3.70;1.30;;;10.00;99.90;;;;;;494080;241;27957;-71
2023/10/30 01:28:27;;;;;;;5.23;1.40;;;10.10;99.90;;;;;;493994;241;27703;-71
2023/10/30 01:30:28;;;;;;;2.37;1.33;;;10.00;99.90;;;;;;493979;241;28448;-71
2023/10/30 01:32:29;;;;;;;2.10;1.10;;;10.00;99.90;;;;;;494020;241;28262;-71
2023/10/30 01:34:31;;;;;;;5.37;1.63;;;10.00;99.90;;;;;;494035;241;28032;-71
2023/10/30 01:36:32;;;;;;;2.93;1.17;;;10.00;99.90;;;;;;494127;241;27974;-71
2023/10/30 01:38:33;;;;;;;2.73;1.20;;;10.00;99.90;;;;;;494033;241;27952;-71
2023/10/30 01:40:35;;;;;;;0.90;0.90;;;10.00;99.90;;;;;;494046;241;28071;-72
2023/10/30 01:42:36;;;;;;;3.03;1.50;;;10.00;99.90;;;;;;494042;241;27938;-72
2023/10/30 01:44:37;;;;;;;2.17;1.30;;;10.00;99.90;;;;;;494100;241;27798;-71
2023/10/30 01:46:38;;;;;;;3.80;1.27;;;10.00;99.90;;;;;;494109;241;28000;-72
2023/10/30 01:48:41;;;;;;;3.07;1.30;;;10.00;99.90;;;;;;494028;241;28066;-71
2023/10/30 01:50:41;;;;;;;2.37;1.20;;;10.00;99.90;;;;;;493959;241;28017;-71
2023/10/30 01:52:42;;;;;;;2.40;1.00;;;10.00;99.90;;;;;;494069;241;28460;-72
2023/10/30 01:54:44;;;;;;;2.30;1.10;;;10.10;99.90;;;;;;494022;241;28470;-72
2023/10/30 01:56:45;;;;;;;1.50;1.30;;;10.00;99.90;;;;;;493938;241;28067;-71
2023/10/30 01:58:46;;;;;;;1.23;1.07;;;10.00;99.90;;;;;;494052;241;27855;-73
2023/10/30 02:00:47;;;;;;;2.03;1.00;;;10.10;99.90;;;;;;494053;241;27800;-72
2023/10/30 02:02:48;;;;;;;3.57;1.20;;;10.10;99.90;;;;;;494065;241;28057;-72
2023/10/30 02:04:50;;;;;;;2.57;1.37;;;10.00;99.90;;;;;;494125;241;27904;-70
2023/10/30 02:06:51;;;;;;;4.30;1.40;;;10.00;99.90;;;;;;494112;241;28070;-72
2023/10/30 02:08:52;;;;;;;1.90;1.23;;;10.10;99.90;;;;;;494139;241;27930;-73
2023/10/30 02:10:53;;;;;;;1.93;1.07;;;10.10;99.90;;;;;;494128;241;27689;-71
2023/10/30 02:12:55;;;;;;;1.57;1.20;;;10.10;99.90;;;;;;494112;241;27861;-72
2023/10/30 02:14:56;;;;;;;1.60;1.17;;;10.00;99.90;;;;;;494096;241;27664;-72
2023/10/30 02:16:57;;;;;;;2.00;1.10;;;10.00;99.90;;;;;;494084;241;28429;-72
2023/10/30 02:18:58;;;;;;;7.20;1.10;;;10.10;99.90;;;;;;494111;241;28104;-72
2023/10/30 02:21:00;;;;;;;3.23;1.00;;;10.10;99.90;;;;;;494086;241;28412;-71
2023/10/30 02:23:01;;;;;;;2.10;1.00;;;10.10;99.90;;;;;;494025;241;28085;-71
2023/10/30 02:25:02;;;;;;;1.00;0.90;;;10.10;99.90;;;;;;494002;241;27963;-72
2023/10/30 02:27:03;;;;;;;1.53;0.90;;;10.00;99.90;;;;;;493996;241;27910;-71
2023/10/30 02:29:05;;;;;;;2.23;0.90;;;10.00;99.90;;;;;;494107;241;27701;-72
2023/10/30 02:31:06;;;;;;;2.50;0.93;;;10.00;99.90;;;;;;494076;241;27915;-71
2023/10/30 02:33:08;;;;;;;1.50;1.17;;;10.10;99.90;;;;;;494038;241;27637;-71
2023/10/30 02:35:08;;;;;;;2.10;1.00;;;10.10;99.90;;;;;;493870;241;27916;-73
2023/10/30 02:37:10;;;;;;;1.10;1.00;;;10.10;99.90;;;;;;494025;241;28091;-71
2023/10/30 02:39:11;;;;;;;1.23;1.00;;;10.00;99.90;;;;;;494095;241;27740;-74
2023/10/30 02:41:12;;;;;;;3.93;1.00;;;10.00;99.90;;;;;;494012;241;28422;-72
2023/10/30 02:43:13;;;;;;;2.10;1.00;;;10.00;99.90;;;;;;494100;241;27968;-72
2023/10/30 02:45:15;;;;;;;4.33;1.57;;;10.00;99.90;;;;;;494057;237;28685;-72
2023/10/30 02:47:16;;;;;;;2.27;1.20;;;10.00;99.90;;;;;;494044;241;27780;-72
2023/10/30 02:49:17;;;;;;;1.00;1.00;;;10.00;99.90;;;;;;494007;241;27982;-71
2023/10/30 02:51:18;;;;;;;3.73;1.40;;;10.00;99.90;;;;;;494107;241;27700;-71
2023/10/30 02:53:20;;;;;;;1.10;1.00;;;10.00;99.90;;;;;;493994;241;27983;-72
2023/10/30 02:55:21;;;;;;;3.53;1.10;;;10.00;99.90;;;;;;494040;241;27996;-72
2023/10/30 02:57:22;;;;;;;2.07;1.00;;;10.00;99.90;;;;;;494016;241;27917;-71
2023/10/30 02:59:23;;;;;;;1.87;1.17;;;10.00;99.90;;;;;;493985;241;28080;-72
2023/10/30 03:01:25;;;;;;;3.20;1.50;;;10.00;99.90;;;;;;493949;241;27871;-71
2023/10/30 03:03:26;;;;;;;1.80;1.13;;;10.00;99.90;;;;;;494019;241;27945;-72
2023/10/30 03:05:27;;;;;;;3.07;1.33;;;10.10;99.90;;;;;;494037;241;28440;-72
2023/10/30 03:07:28;;;;;;;2.30;1.10;;;10.10;99.90;;;;;;494002;241;28426;-71
2023/10/30 03:09:30;;;;;;;2.60;1.10;;;10.10;99.90;;;;;;494021;241;28428;-71
2023/10/30 03:11:31;;;;;;;5.27;1.73;;;10.10;99.90;;;;;;494096;241;27769;-73
2023/10/30 03:13:32;;;;;;;4.10;1.30;;;10.10;99.90;;;;;;494086;241;27706;-71
2023/10/30 03:15:33;;;;;;;1.67;1.20;;;10.10;99.90;;;;;;494095;241;27925;-71
2023/10/30 03:17:35;;;;;;;4.67;1.03;;;10.10;99.90;;;;;;494050;241;28000;-71
2023/10/30 03:19:36;;;;;;;3.40;1.10;;;10.10;99.90;;;;;;494062;241;27920;-71
2023/10/30 03:21:37;;;;;;;4.70;1.20;;;10.10;99.90;;;;;;494053;241;28154;-72
2023/10/30 03:23:38;;;;;;;3.60;1.20;;;10.10;99.90;;;;;;493986;241;28025;-71
2023/10/30 03:25:40;;;;;;;3.37;1.50;;;10.10;99.90;;;;;;493793;241;27855;-71
2023/10/30 03:27:41;;;;;;;2.00;1.07;;;10.10;99.90;;;;;;493820;241;27906;-71
2023/10/30 03:29:42;;;;;;;3.03;1.27;;;10.10;99.90;;;;;;494015;241;28373;-71
2023/10/30 03:31:43;;;;;;;1.80;1.10;;;10.10;99.90;;;;;;494024;241;28310;-73
2023/10/30 03:33:45;;;;;;;1.47;1.13;;;10.10;99.90;;;;;;494020;241;28368;-71
2023/10/30 03:35:46;;;;;;;4.33;1.07;;;10.10;99.90;;;;;;494006;241;28060;-72
2023/10/30 03:37:47;;;;;;;1.93;1.10;;;10.20;99.90;;;;;;493972;241;27965;-71
2023/10/30 03:39:48;;;;;;;3.30;1.30;;;10.20;99.90;;;;;;494039;241;27810;-71
2023/10/30 03:41:50;;;;;;;1.57;1.13;;;10.20;99.90;;;;;;494045;241;27975;-72
2023/10/30 03:43:51;;;;;;;3.50;1.37;;;10.20;99.90;;;;;;494016;241;28380;-71
2023/10/30 03:45:52;;;;;;;2.70;2.30;;;10.20;99.90;;;;;;494015;241;28351;-71
2023/10/30 03:47:54;;;;;;;2.90;1.60;;;10.20;99.90;;;;;;494045;241;28472;-72
2023/10/30 03:49:55;;;;;;;1.83;1.40;;;10.20;99.90;;;;;;494022;241;28087;-71
2023/10/30 03:51:56;;;;;;;4.13;1.53;;;10.20;99.90;;;;;;493996;241;27695;-71
2023/10/30 03:53:57;;;;;;;2.20;1.20;;;10.20;99.90;;;;;;494119;241;27995;-71
2023/10/30 03:55:59;;;;;;;2.00;1.13;;;10.20;99.90;;;;;;494124;241;27932;-71
2023/10/30 03:58:02;;;;;;;2.97;1.20;;;10.20;99.90;;;;;;494096;241;27981;-72
2023/10/30 04:00:01;;;;;;;2.10;1.20;;;10.20;99.90;;;;;;493881;241;27916;-71
2023/10/30 04:02:02;;;;;;;2.30;1.10;;;10.20;99.90;;;;;;494029;238;27866;-71
2023/10/30 04:04:04;;;;;;;4.60;1.17;;;10.20;99.90;;;;;;494118;241;28550;-72
2023/10/30 04:06:05;;;;;;;1.13;1.07;;;10.20;99.90;;;;;;494047;241;27865;-71
2023/10/30 04:08:06;;;;;;;3.80;1.20;;;10.20;99.90;;;;;;494058;241;28113;-72
2023/10/30 04:10:07;;;;;;;0.90;0.90;;;10.20;99.90;;;;;;494081;241;28400;-71
2023/10/30 04:12:09;;;;;;;2.10;1.23;;;10.20;99.90;;;;;;494103;241;28470;-71
2023/10/30 04:14:10;;;;;;;1.53;0.80;;;10.20;99.90;;;;;;494113;241;28609;-72
2023/10/30 04:16:11;;;;;;;2.50;1.23;;;10.20;99.90;;;;;;494119;241;27936;-72
2023/10/30 04:18:12;;;;;;;1.07;1.00;;;10.20;99.90;;;;;;494083;241;27896;-71
2023/10/30 04:20:14;;;;;;;5.07;1.10;;;10.20;99.90;;;;;;494050;241;27696;-72
2023/10/30 04:22:15;;;;;;;2.67;1.20;;;10.20;99.90;;;;;;494021;241;27588;-71
2023/10/30 04:24:16;;;;;;;1.17;1.00;;;10.20;99.90;;;;;;494053;241;27961;-72
2023/10/30 04:26:19;;;;;;;1.43;1.17;;;10.20;99.90;;;;;;494047;241;27945;-72
2023/10/30 04:28:19;;;;;;;1.10;0.90;;;10.20;99.90;;;;;;493905;241;28095;-72
2023/10/30 04:30:20;;;;;;;2.60;1.10;;;10.20;99.90;;;;;;494048;241;27963;-72
2023/10/30 04:32:22;;;;;;;2.70;1.20;;;10.20;99.90;;;;;;494056;241;27899;-71
2023/10/30 04:34:23;;;;;;;2.20;1.00;;;10.20;99.90;;;;;;494051;241;28425;-72
2023/10/30 04:36:25;;;;;;;2.60;0.90;;;10.30;99.90;;;;;;494027;241;28981;-73
2023/10/30 04:38:25;;;;;;;3.63;1.20;;;10.20;99.90;;;;;;494050;241;28071;-72
2023/10/30 04:40:27;;;;;;;1.63;1.03;;;10.20;99.90;;;;;;494053;241;27721;-72
2023/10/30 04:42:28;;;;;;;1.20;1.00;;;10.20;99.90;;;;;;494058;241;27966;-71
2023/10/30 04:44:29;;;;;;;2.10;1.17;;;10.20;99.90;;;;;;494074;241;27697;-71
2023/10/30 04:46:31;;;;;;;1.60;0.97;;;10.30;99.90;;;;;;494077;241;28070;-72
2023/10/30 04:48:32;;;;;;;1.20;1.20;;;10.30;99.90;;;;;;494059;241;28077;-72
2023/10/30 04:50:33;;;;;;;2.47;1.20;;;10.30;99.90;;;;;;494033;241;27684;-72
2023/10/30 04:52:34;;;;;;;1.30;1.20;;;10.30;99.90;;;;;;494083;241;28465;-71
2023/10/30 04:54:36;;;;;;;2.77;1.10;;;10.30;99.90;;;;;;494145;241;27896;-72
2023/10/30 04:56:37;;;;;;;1.17;1.00;;;10.30;99.90;;;;;;493913;241;28332;-71
2023/10/30 04:58:38;;;;;;;2.10;1.00;;;10.30;99.90;;;;;;494124;241;28508;-70
2023/10/30 05:00:42;;;;;;;1.27;1.10;;;10.30;99.90;;;;;;494129;241;28554;-71
2023/10/30 05:02:42;;;;;;;1.00;1.00;;;10.30;99.90;;;;;;493895;241;28681;-72
2023/10/30 05:04:42;;;;;;;3.97;1.13;;;10.30;99.90;;;;;;493888;237;27992;-71
2023/10/30 05:06:43;;;;;;;1.20;1.10;;;10.30;99.90;;;;;;494110;241;27857;-72
2023/10/30 05:08:45;;;;;;;2.37;1.20;;;10.30;99.90;;;;;;494018;241;27974;-71
2023/10/30 05:10:45;;;;;;;2.80;1.00;;;10.30;99.90;;;;;;494025;241;27722;-72
2023/10/30 05:12:47;;;;;;;1.20;1.10;;;10.30;99.90;;;;;;494026;241;28097;-71
2023/10/30 05:14:48;;;;;;;1.17;1.10;;;10.30;99.90;;;;;;494132;241;27964;-71
2023/10/30 05:16:49;;;;;;;0.90;0.90;;;10.30;99.90;;;;;;494131;241;27660;-72
2023/10/30 05:18:50;;;;;;;2.63;1.37;;;10.30;99.90;;;;;;494068;241;27983;-72
2023/10/30 05:20:52;;;;;;;2.10;1.00;;;10.30;99.90;;;;;;494118;241;28308;-71
2023/10/30 05:22:53;;;;;;;1.10;0.90;;;10.30;99.90;;;;;;494130;241;28004;-72
2023/10/30 05:24:54;;;;;;;1.37;1.00;;;10.30;99.90;;;;;;494064;241;28237;-71
2023/10/30 05:26:56;;;;;;;1.00;1.00;;;10.30;99.90;;;;;;494099;241;28024;-72
2023/10/30 05:28:58;;;;;;;2.43;1.10;;;10.30;99.90;;;;;;494129;241;27961;-72
2023/10/30 05:31:00;;;;;;;0.90;0.80;;;10.40;99.90;;;;;;494097;241;28204;-71
2023/10/30 05:33:01;;;;;;;1.23;1.07;;;10.30;99.90;;;;;;494112;241;27944;-71
2023/10/30 05:35:02;;;;;;;0.93;0.93;;;10.30;99.90;;;;;;493984;241;28382;-71
2023/10/30 05:37:06;;;;;;;2.20;1.17;;;10.30;99.90;;;;;;494112;241;28103;-72
2023/10/30 05:39:05;;;;;;;1.73;1.00;;;10.30;99.90;;;;;;493788;241;28663;-72
2023/10/30 05:41:06;;;;;;;3.70;1.10;;;10.30;99.90;;;;;;494023;241;27814;-72
2023/10/30 05:43:07;;;;;;;1.00;1.00;;;10.30;99.90;;;;;;494055;241;27855;-72
2023/10/30 05:45:09;;;;;;;0.90;0.90;;;10.30;99.90;;;;;;494131;241;27965;-72
2023/10/30 05:47:10;;;;;;;1.17;0.93;;;10.30;99.90;;;;;;494096;241;28511;-72
2023/10/30 05:49:11;;;;;;;1.07;0.97;;;10.40;99.90;;;;;;494047;241;28390;-72
2023/10/30 05:51:12;;;;;;;2.10;1.00;;;10.30;99.90;;;;;;494046;241;27902;-71
2023/10/30 05:53:14;;;;;;;1.10;1.00;;;10.30;99.90;;;;;;494000;241;27612;-72
2023/10/30 05:55:15;;;;;;;1.10;1.00;;;10.30;99.90;;;;;;494100;241;28069;-72
2023/10/30 05:57:17;;;;;;;2.67;1.03;;;10.30;99.90;;;;;;494116;241;27817;-71
2023/10/30 05:59:18;;;;;;;0.90;0.90;;;10.30;99.90;;;;;;494087;241;28117;-71
2023/10/30 06:01:19;;;;;;;0.90;0.90;;;10.30;99.90;;;;;;493894;241;28462;-72
2023/10/30 06:03:21;;;;;;;1.90;0.97;;;10.30;99.90;;;;;;494014;241;27927;-72
2023/10/30 06:05:22;;;;;;;3.70;0.90;;;10.30;99.90;;;;;;494013;237;27944;-72
2023/10/30 06:07:23;;;;;;;1.97;0.93;;;10.20;99.90;;;;;;494012;241;27970;-71
2023/10/30 06:09:26;;;;;;;1.83;1.00;;;10.30;99.90;;;;;;494070;241;27898;-71
2023/10/30 06:11:26;;;;;;;1.00;1.00;;;10.20;99.90;;;;;;493831;241;28041;-71
2023/10/30 06:13:28;;;;;;;1.10;1.00;;;10.30;99.90;;;;;;494037;241;28485;-71
2023/10/30 06:15:30;;;;;;;0.80;0.80;;;10.20;99.90;;;;;;494017;241;27817;-72
2023/10/30 06:17:30;;;;;;;0.90;0.90;;;10.20;99.90;;;;;;493979;241;28138;-72
2023/10/30 06:19:31;;;;;;;0.90;0.90;;;10.20;99.90;;;;;;494051;241;28136;-72
2023/10/30 06:21:33;;;;;;;0.90;0.90;;;10.20;99.90;;;;;;494109;241;27988;-71
2023/10/30 06:23:34;;;;;;;1.10;1.00;;;10.20;99.90;;;;;;493889;241;27986;-72
2023/10/30 06:25:35;;;;;;;0.90;0.90;;;10.20;99.90;;;;;;494024;241;27634;-71
2023/10/30 06:27:36;;;;;;;1.70;0.90;;;10.20;99.90;;;;;;494087;241;28003;-72
2023/10/30 06:29:38;;;;;;;1.53;1.00;;;10.30;99.90;;;;;;493935;241;28053;-73
2023/10/30 06:31:39;;;;;;;1.10;1.10;;;10.30;99.90;;;;;;493844;241;28505;-71
2023/10/30 06:33:40;;;;;;;2.00;1.13;;;10.30;99.90;;;;;;494031;241;28457;-72
2023/10/30 06:35:41;;;;;;;1.90;1.10;;;10.30;99.90;;;;;;494052;241;28475;-71
2023/10/30 06:37:43;;;;;;;1.13;1.00;;;10.30;99.90;;;;;;494023;241;27939;-71
2023/10/30 06:39:44;;;;;;;1.03;0.97;;;10.30;99.90;;;;;;494036;241;27851;-73
2023/10/30 06:41:45;;;;;;;0.97;0.97;;;10.30;99.90;;;;;;493955;241;27974;-71
2023/10/30 06:43:46;;;;;;;1.10;1.10;;;10.30;99.90;;;;;;494019;241;27950;-71
2023/10/30 06:45:48;;;;;;;1.50;1.40;;;10.30;99.90;;;;;;494027;241;27864;-71
2023/10/30 06:47:49;;;;;;;1.93;1.43;;;10.30;99.90;;;;;;494021;241;28062;-71
2023/10/30 06:49:51;;;;;;;1.40;1.30;;;10.30;99.90;;;;;;494061;239;27974;-71
2023/10/30 06:51:51;;;;;;;1.43;1.30;;;10.30;99.90;;;;;;493980;241;27678;-71
2023/10/30 06:53:53;;;;;;;1.27;1.17;;;10.30;99.90;;;;;;493993;241;27621;-72
2023/10/30 06:55:54;;;;;;;1.00;1.00;;;10.30;99.90;;;;;;494023;241;28337;-73
2023/10/30 06:57:56;;;;;;;2.00;1.10;;;10.30;99.90;;;;;;494021;241;28554;-71
2023/10/30 06:59:58;;;;;;;2.07;1.00;;;10.30;99.90;;;;;;494037;241;28568;-72
2023/10/30 07:01:59;;;;;;;1.00;1.00;;;10.30;99.90;;;;;;493897;241;28253;-71
2023/10/30 07:03:59;;;;;;;1.57;1.10;;;10.40;99.90;;;;;;493992;241;28040;-72
2023/10/30 07:06:01;;;;;;;1.50;0.80;;;10.40;99.90;;;;;;494008;241;27736;-72
2023/10/30 07:08:03;;;;;;;1.53;0.83;;;10.40;99.90;;;;;;494007;241;27963;-72
2023/10/30 07:10:03;;;;;;;1.27;1.00;;;10.40;99.90;;;;;;494007;241;27952;-71
2023/10/30 07:12:05;;;;;;;0.80;0.80;;;10.40;99.90;;;;;;494099;241;27836;-71
2023/10/30 07:14:06;;;;;;;0.90;0.80;;;10.40;99.90;;;;;;494109;241;27981;-71
2023/10/30 07:16:07;;;;;;;1.00;1.00;;;10.40;99.90;;;;;;494008;241;27703;-72
2023/10/30 07:18:09;;;;;;;0.97;0.97;;;10.40;99.90;;;;;;494022;241;27995;-73
2023/10/30 07:20:09;;;;;;;1.23;0.90;;;10.40;99.90;;;;;;494019;241;27999;-72
2023/10/30 07:22:11;;;;;;;1.00;1.00;;;10.40;99.90;;;;;;494021;241;28496;-72
2023/10/30 07:24:12;;;;;;;1.20;1.10;;;10.40;99.90;;;;;;494030;241;28376;-71
2023/10/30 07:26:13;;;;;;;1.33;1.10;;;10.40;99.90;;;;;;494010;241;28079;-71
2023/10/30 07:28:16;;;;;;;1.00;0.93;;;10.40;99.90;;;;;;494038;241;27908;-72
2023/10/30 07:30:16;;;;;;;0.90;0.90;;;10.40;99.90;;;;;;493868;241;28009;-72
2023/10/30 07:32:17;;;;;;;1.93;1.27;;;10.40;99.90;;;;;;494021;241;27811;-72
2023/10/30 07:34:18;;;;;;;1.27;1.17;;;10.50;99.90;;;;;;494030;241;27700;-71
2023/10/30 07:36:20;;;;;;;0.97;0.87;;;10.50;99.90;;;;;;494016;241;27982;-71
2023/10/30 07:38:21;;;;;;;1.20;1.10;;;10.60;99.90;;;;;;494056;241;28009;-71
2023/10/30 07:40:25;;;;;;;1.10;1.00;;;10.60;99.90;;;;;;494027;241;27836;-71
2023/10/30 07:42:23;;;;;;;0.90;0.90;;;10.60;99.90;;;;;;493697;241;27986;-72
2023/10/30 07:44:25;;;;;;;1.40;1.30;;;10.60;99.90;;;;;;494023;241;28054;-72
2023/10/30 07:46:26;;;;;;;1.67;1.57;;;10.60;99.90;;;;;;494001;241;27859;-71
2023/10/30 07:48:28;;;;;;;4.20;1.90;;;10.60;99.90;;;;;;494001;237;28528;-71
2023/10/30 07:50:29;;;;;;;2.40;1.70;;;10.60;99.90;;;;;;493993;241;28470;-72
2023/10/30 07:52:30;;;;;;;2.07;1.80;;;10.60;99.90;;;;;;493994;241;27906;-71
2023/10/30 07:54:31;;;;;;;12.80;5.40;;;10.60;99.90;;;;;;493961;241;27992;-73
2023/10/30 07:56:33;;;;;;;5.97;2.70;;;10.60;99.90;;;;;;493993;241;27969;-72
2023/10/30 07:58:34;;;;;;;8.73;5.80;;;10.60;99.90;;;;;;494058;241;27915;-72
2023/10/30 08:00:35;;;;;;;6.03;5.40;;;10.60;99.90;;;;;;493761;241;28022;-71
2023/10/30 08:02:36;;;;;;;3.23;2.40;;;10.60;99.90;;;;;;494038;241;28166;-71
2023/10/30 08:04:38;;;;;;;2.63;2.43;;;10.60;99.90;;;;;;494081;241;27863;-72
2023/10/30 08:06:39;;;;;;;1.87;1.77;;;10.60;99.90;;;;;;494038;241;28117;-73
2023/10/30 08:08:40;;;;;;;2.23;2.03;;;10.60;99.90;;;;;;493976;241;27967;-71
2023/10/30 08:10:41;;;;;;;9.07;8.17;;;10.70;99.90;;;;;;494025;241;28318;-72
2023/10/30 08:12:43;;;;;;;3.70;3.40;;;10.70;99.90;;;;;;494056;238;28400;-71
2023/10/30 08:14:44;;;;;;;3.10;2.90;;;10.70;99.90;;;;;;494040;241;28337;-73
2023/10/30 08:16:45;;;;;;;1.70;1.60;;;10.70;99.90;;;;;;494056;241;27736;-71
2023/10/30 08:18:46;;;;;;;1.50;1.40;;;10.60;99.90;;;;;;494003;241;28027;-71
2023/10/30 08:20:48;;;;;;;1.73;1.43;;;10.60;99.90;;;;;;493971;241;27964;-71
2023/10/30 08:22:49;;;;;;;2.10;1.20;;;10.60;99.90;;;;;;494026;241;27701;-72
2023/10/30 08:24:51;;;;;;;1.50;1.40;;;10.60;99.90;;;;;;494069;241;28054;-71
2023/10/30 08:26:51;;;;;;;1.50;1.40;;;10.70;99.90;;;;;;494053;241;28305;-72
2023/10/30 08:28:53;;;;;;;4.33;1.87;;;10.70;99.90;;;;;;494053;241;28034;-72
2023/10/30 08:30:54;;;;;;;1.67;1.40;;;10.70;99.90;;;;;;494075;241;27913;-71
2023/10/30 08:32:56;;;;;;;1.40;1.30;;;10.70;99.90;;;;;;494037;241;28012;-72
2023/10/30 08:35:01;;;;;;;2.20;1.43;;;10.70;99.90;;;;;;494131;241;28390;-71
2023/10/30 08:36:58;;;;;;;1.30;1.23;;;10.80;99.90;;;;;;493698;241;28625;-71
2023/10/30 08:39:00;;;;;;;1.60;1.10;;;10.70;99.90;;;;;;494066;241;28454;-72
2023/10/30 08:41:01;;;;;;;2.60;2.40;;;10.80;99.90;;;;;;494106;241;28541;-71
2023/10/30 08:43:02;;;;;;;2.30;2.20;;;10.70;99.90;;;;;;494135;241;27972;-72
2023/10/30 08:45:03;;;;;;;2.53;2.33;;;10.80;99.90;;;;;;494049;241;27837;-71
2023/10/30 08:47:05;;;;;;;15.43;13.80;;;10.80;99.90;;;;;;494111;241;27952;-72
2023/10/30 08:49:06;;;;;;;12.43;11.23;;;10.80;99.90;;;;;;494113;241;28373;-72
2023/10/30 08:51:08;;;;;;;14.50;13.00;;;10.80;99.90;;;;;;494114;241;28027;-72
2023/10/30 08:53:09;;;;;;;13.10;10.63;;;10.90;99.90;;;;;;494120;241;27925;-71
2023/10/30 08:55:10;;;;;;;8.50;7.60;;;10.90;99.90;;;;;;494103;241;28195;-71
2023/10/30 08:57:12;;;;;;;6.90;6.27;;;10.90;99.90;;;;;;494097;241;28354;-72
2023/10/30 08:59:13;;;;;;;5.20;4.70;;;10.90;99.90;;;;;;494046;241;27848;-71
2023/10/30 09:01:14;;;;;;;4.00;3.70;;;11.00;99.90;;;;;;494094;241;27993;-72
2023/10/30 09:03:15;;;;;;;8.17;7.47;;;11.00;99.90;;;;;;494067;241;28083;-71
2023/10/30 09:05:17;;;;;;;7.13;6.53;;;11.10;99.90;;;;;;494020;241;28945;-71
2023/10/30 09:07:18;;;;;;;5.93;5.43;;;11.20;99.90;;;;;;494043;241;28587;-73
2023/10/30 09:09:19;;;;;;;5.53;5.10;;;11.30;99.90;;;;;;494038;241;28173;-72
2023/10/30 09:11:21;;;;;;;3.20;3.00;;;11.40;99.90;;;;;;493608;241;28551;-72
2023/10/30 09:13:22;;;;;;;3.00;2.80;;;11.40;99.90;;;;;;493855;241;28061;-72
2023/10/30 09:15:23;;;;;;;2.23;2.13;;;11.40;99.90;;;;;;494070;241;28209;-71
2023/10/30 09:17:24;;;;;;;1.20;1.10;;;11.40;99.90;;;;;;494035;241;27988;-72
2023/10/30 09:19:25;;;;;;;2.93;2.33;;;11.40;99.90;;;;;;494042;241;28316;-71
2023/10/30 09:21:27;;;;;;;1.20;1.10;;;11.40;99.90;;;;;;494093;241;28076;-72
2023/10/30 09:23:28;;;;;;;1.70;1.60;;;11.30;99.90;;;;;;494010;241;28195;-72
2023/10/30 09:25:29;;;;;;;2.73;1.20;;;11.40;99.90;;;;;;494029;241;28077;-72
2023/10/30 09:27:30;;;;;;;3.60;3.30;;;11.50;99.90;;;;;;494001;241;28069;-71
2023/10/30 09:29:32;;;;;;;1.33;1.23;;;11.30;99.90;;;;;;494011;241;28154;-71
2023/10/30 09:31:33;;;;;;;1.57;1.53;;;11.30;99.90;;;;;;494050;241;28564;-72
2023/10/30 09:33:34;;;;;;;1.20;1.20;;;11.30;99.90;;;;;;494106;241;28581;-73
2023/10/30 09:35:37;;;;;;;1.20;1.10;;;11.40;99.90;;;;;;494029;241;28681;-71
2023/10/30 09:37:37;;;;;;;0.90;0.90;;;11.40;99.90;;;;;;493989;241;28498;-72
2023/10/30 09:39:38;;;;;;;1.00;1.00;;;11.50;99.90;;;;;;494031;241;28661;-71
2023/10/30 09:41:41;;;;;;;1.00;1.00;;;11.50;99.90;;;;;;494015;241;28295;-71
2023/10/30 09:43:41;;;;;;;0.83;0.83;;;11.60;99.90;;;;;;493868;241;28223;-72
2023/10/30 09:45:42;;;;;;;1.23;1.17;;;11.60;99.90;;;;;;494032;241;28252;-72
2023/10/30 09:47:44;;;;;;;0.90;0.90;;;11.60;99.90;;;;;;494047;241;27931;-72
2023/10/30 09:49:45;;;;;;;0.90;0.90;;;11.60;99.90;;;;;;494069;241;28652;-72
2023/10/30 09:51:46;;;;;;;0.80;0.80;;;11.50;99.90;;;;;;494091;241;28738;-71
2023/10/30 09:53:48;;;;;;;1.20;1.10;;;11.50;99.90;;;;;;494012;237;28146;-71
2023/10/30 09:55:49;;;;;;;0.90;0.90;;;11.50;99.90;;;;;;494012;241;28147;-72
2023/10/30 09:57:54;;;;;;;1.20;1.10;;;11.50;99.90;;;;;;493991;241;28064;-71
2023/10/30 09:59:54;;;;;;;1.10;1.10;;;11.50;99.90;;;;;;493788;241;28144;-71
2023/10/30 10:01:53;;;;;;;1.23;1.13;;;11.50;99.90;;;;;;493806;241;28318;-71
2023/10/30 10:03:55;;;;;;;1.10;1.10;;;11.50;99.90;;;;;;494083;241;28171;-72
2023/10/30 10:05:56;;;;;;;1.00;1.00;;;11.50;99.90;;;;;;494095;241;28097;-71
2023/10/30 10:07:58;;;;;;;1.57;1.47;;;11.50;99.90;;;;;;494031;241;28158;-72
2023/10/30 10:10:00;;;;;;;1.20;1.20;;;11.50;99.90;;;;;;494026;241;28311;-72
2023/10/30 10:12:02;;;;;;;1.50;1.00;;;11.50;99.90;;;;;;494002;241;28790;-72
2023/10/30 10:14:04;;;;;;;1.23;1.00;;;11.50;99.90;;;;;;494035;241;28122;-73
2023/10/30 10:16:04;;;;;;;0.93;0.93;;;11.50;99.90;;;;;;493977;241;28150;-72
2023/10/30 10:18:05;;;;;;;0.90;0.90;;;11.50;99.90;;;;;;494003;241;27992;-71
2023/10/30 10:20:07;;;;;;;0.60;0.60;;;11.50;99.90;;;;;;494073;241;28212;-72
2023/10/30 10:22:08;;;;;;;0.80;0.80;;;11.60;99.90;;;;;;494059;241;28063;-72
2023/10/30 10:24:09;;;;;;;3.80;0.80;;;11.50;99.90;;;;;;494075;241;28217;-71
2023/10/30 10:26:13;;;;;;;0.90;0.90;;;11.60;99.90;;;;;;494002;241;28015;-72
2023/10/30 10:28:11;;;;;;;1.47;0.80;;;11.60;99.90;;;;;;493740;241;28804;-72
2023/10/30 10:30:13;;;;;;;1.00;0.90;;;11.60;99.90;;;;;;494078;237;28202;-74